Time;durP1;ratioP1;P1;durP2;ratioP2;P2;SDS_P1;SDS_P2;PMS_P1;PMS_P2;Temp;Humidity;BMP_temperature;BMP_pressure;BME280_temperature;BME280_humidity;BME280_pressure;Samples;Min_cycle;Max_cycle;Signal;HPM_P1;HPM_P2
2023/08/21 00:01:37;;;;;;;5.70;4.07;;;23.30;99.90;;;;;;4933974;29;20663;-80
2023/08/21 00:04:03;;;;;;;5.13;3.60;;;23.30;99.90;;;;;;4935025;29;20595;-80
2023/08/21 00:06:28;;;;;;;4.00;3.60;;;23.20;99.90;;;;;;4933387;29;20627;-80
2023/08/21 00:08:54;;;;;;;4.17;3.50;;;23.20;99.90;;;;;;4933276;29;20600;-80
2023/08/21 00:11:20;;;;;;;4.20;3.80;;;23.20;99.90;;;;;;4933887;29;20216;-80
2023/08/21 00:13:48;;;;;;;6.00;4.03;;;23.20;99.90;;;;;;4935410;29;20304;-80
2023/08/21 00:16:14;;;;;;;4.80;4.40;;;23.20;99.90;;;;;;4933625;29;20201;-80
2023/08/21 00:18:39;;;;;;;4.87;4.47;;;23.10;99.90;;;;;;4934686;29;20981;-80
2023/08/21 00:21:05;;;;;;;4.53;4.13;;;23.10;99.90;;;;;;4933448;29;20601;-80
2023/08/21 00:23:31;;;;;;;4.83;4.43;;;23.10;99.90;;;;;;4934544;29;20271;-80
2023/08/21 00:25:57;;;;;;;7.40;4.60;;;23.00;99.90;;;;;;4933398;29;20212;-79
2023/08/21 00:28:22;;;;;;;4.07;3.67;;;23.00;99.90;;;;;;4933298;29;20593;-79
2023/08/21 00:30:49;;;;;;;6.70;4.40;;;23.00;99.90;;;;;;4934494;29;20180;-79
2023/08/21 00:33:15;;;;;;;7.07;3.90;;;23.00;99.90;;;;;;4933084;29;20577;-79
2023/08/21 00:35:42;;;;;;;6.40;5.37;;;23.00;99.90;;;;;;4933254;29;20240;-79
2023/08/21 00:38:08;;;;;;;4.67;3.97;;;23.00;99.90;;;;;;4934280;29;20224;-79
2023/08/21 00:40:33;;;;;;;4.97;3.97;;;22.90;99.90;;;;;;4933029;29;20588;-80
2023/08/21 00:43:00;;;;;;;5.20;4.30;;;22.90;99.90;;;;;;4932864;29;20585;-80
2023/08/21 00:45:26;;;;;;;5.77;4.70;;;22.90;99.90;;;;;;4934115;29;20695;-80
2023/08/21 00:47:52;;;;;;;5.30;4.43;;;22.90;99.90;;;;;;4933021;29;20621;-80
2023/08/21 00:50:18;;;;;;;5.30;4.90;;;22.80;99.90;;;;;;4934159;29;20628;-80
2023/08/21 00:52:46;;;;;;;6.43;4.60;;;22.80;99.90;;;;;;4932607;29;20594;-80
2023/08/21 00:55:13;;;;;;;9.00;4.73;;;22.80;99.90;;;;;;4934011;29;20593;-80
2023/08/21 00:57:40;;;;;;;5.53;4.90;;;22.80;99.90;;;;;;4931403;29;20648;-80
2023/08/21 01:00:10;;;;;;;4.03;3.63;;;22.80;99.90;;;;;;4901283;29;20648;-80
2023/08/21 01:02:36;;;;;;;4.77;3.40;;;22.80;99.90;;;;;;4933701;29;20733;-80
2023/08/21 01:05:01;;;;;;;4.70;4.23;;;22.80;99.90;;;;;;4931219;29;20678;-80
2023/08/21 01:07:28;;;;;;;5.30;3.80;;;22.70;99.90;;;;;;4925060;29;20675;-80
2023/08/21 01:10:07;;;;;;;4.40;4.00;;;22.70;99.90;;;;;;4933227;29;20679;-80
2023/08/21 01:12:56;;;;;;;3.80;3.40;;;22.70;99.90;;;;;;4932469;29;20185;-80
2023/08/21 01:15:23;;;;;;;6.50;3.83;;;22.70;99.90;;;;;;4932783;29;20692;-80
2023/08/21 01:17:50;;;;;;;7.07;4.47;;;22.70;99.90;;;;;;4931630;29;20624;-80
2023/08/21 01:20:16;;;;;;;4.40;3.67;;;22.70;99.90;;;;;;4926779;29;20609;-80
2023/08/21 01:22:46;;;;;;;6.13;4.00;;;22.60;99.90;;;;;;4918161;29;20664;-80
2023/08/21 01:25:12;;;;;;;5.83;4.20;;;22.60;99.90;;;;;;4901120;29;20639;-80
2023/08/21 01:27:43;;;;;;;5.33;3.50;;;22.60;99.90;;;;;;4932803;29;20624;-79
2023/08/21 01:30:09;;;;;;;6.10;4.10;;;22.60;99.90;;;;;;4937361;29;20593;-79
2023/08/21 01:32:53;;;;;;;4.67;3.70;;;22.60;99.90;;;;;;4916580;29;20608;-80
2023/08/21 01:35:20;;;;;;;4.30;3.70;;;22.50;99.90;;;;;;4929275;29;20597;-80
2023/08/21 01:37:46;;;;;;;4.50;4.10;;;22.50;99.90;;;;;;4915135;29;20640;-80
2023/08/21 01:40:19;;;;;;;4.60;3.60;;;22.50;99.90;;;;;;4932466;29;20600;-80
2023/08/21 01:42:44;;;;;;;6.77;4.00;;;22.40;99.90;;;;;;4932237;29;20600;-80
2023/08/21 01:45:13;;;;;;;4.50;4.10;;;22.40;99.90;;;;;;4932246;29;20701;-80
2023/08/21 01:47:39;;;;;;;4.70;3.87;;;22.40;99.90;;;;;;4932329;29;20620;-80
2023/08/21 01:50:05;;;;;;;6.63;3.50;;;22.40;99.90;;;;;;4932334;29;20256;-80
2023/08/21 01:52:31;;;;;;;5.23;4.17;;;22.30;99.90;;;;;;4929087;29;20474;-80
2023/08/21 01:54:58;;;;;;;7.23;3.50;;;22.30;99.90;;;;;;4948005;29;20601;-80
2023/08/21 01:57:24;;;;;;;3.60;3.07;;;22.30;99.90;;;;;;4932270;29;20259;-80
2023/08/21 01:59:49;;;;;;;4.10;3.70;;;22.30;99.90;;;;;;4932194;29;20589;-80
2023/08/21 02:02:16;;;;;;;4.37;3.97;;;22.30;99.90;;;;;;4932288;29;20173;-80
2023/08/21 02:04:42;;;;;;;4.80;4.10;;;22.30;99.90;;;;;;4932106;29;21194;-80
2023/08/21 02:07:07;;;;;;;4.10;3.57;;;22.20;99.90;;;;;;4932048;29;20197;-80
2023/08/21 02:09:33;;;;;;;3.50;3.20;;;22.20;99.90;;;;;;4932083;29;20285;-80
2023/08/21 02:11:59;;;;;;;3.63;3.13;;;22.20;99.90;;;;;;4932205;29;20212;-80
2023/08/21 02:14:25;;;;;;;4.43;3.40;;;22.20;99.90;;;;;;4915973;29;20581;-80
2023/08/21 02:16:50;;;;;;;4.90;3.00;;;22.20;99.90;;;;;;4932024;29;20209;-80
2023/08/21 02:19:16;;;;;;;3.00;2.70;;;22.20;99.90;;;;;;4932035;29;20208;-80
2023/08/21 02:21:43;;;;;;;3.73;3.23;;;22.20;99.90;;;;;;4916296;29;20196;-80
2023/08/21 02:24:08;;;;;;;5.50;3.50;;;22.20;99.90;;;;;;4931892;29;20589;-80
2023/08/21 02:26:34;;;;;;;5.20;3.60;;;22.10;99.90;;;;;;4928374;29;20201;-80
2023/08/21 02:29:00;;;;;;;4.47;2.60;;;22.10;99.90;;;;;;4916207;29;20686;-80
2023/08/21 02:31:26;;;;;;;6.17;3.30;;;22.10;99.90;;;;;;4935068;29;20208;-80
2023/08/21 02:33:52;;;;;;;7.83;3.50;;;22.10;99.90;;;;;;4935241;29;20581;-80
2023/08/21 02:36:18;;;;;;;4.30;3.10;;;22.00;99.90;;;;;;4935493;29;20209;-80
2023/08/21 02:38:44;;;;;;;4.13;2.70;;;22.00;99.90;;;;;;4919567;29;20615;-80
2023/08/21 02:41:09;;;;;;;3.73;2.60;;;22.00;99.90;;;;;;4935303;29;20184;-80
2023/08/21 02:43:35;;;;;;;3.57;2.80;;;22.00;99.90;;;;;;4935130;29;20320;-80
2023/08/21 02:46:01;;;;;;;3.40;2.23;;;22.00;99.90;;;;;;4903509;29;20255;-80
2023/08/21 02:48:27;;;;;;;4.30;3.00;;;22.00;99.90;;;;;;4935847;29;20183;-80
2023/08/21 02:50:53;;;;;;;3.80;2.77;;;21.90;99.90;;;;;;4935912;29;20191;-80
2023/08/21 02:53:20;;;;;;;3.80;2.90;;;21.90;99.90;;;;;;4935850;29;20585;-80
2023/08/21 02:55:46;;;;;;;4.97;2.90;;;21.90;99.90;;;;;;4935758;29;20612;-80
2023/08/21 02:58:12;;;;;;;4.13;2.67;;;21.90;99.90;;;;;;4936684;29;20711;-80
2023/08/21 03:00:38;;;;;;;4.13;3.20;;;21.90;99.90;;;;;;4934994;29;20592;-80
2023/08/21 03:03:04;;;;;;;4.97;3.73;;;21.90;99.90;;;;;;4934881;29;21233;-80
2023/08/21 03:05:31;;;;;;;5.53;3.20;;;22.00;99.90;;;;;;4935174;29;20267;-80
2023/08/21 03:07:57;;;;;;;4.67;2.80;;;22.00;99.90;;;;;;4935010;29;20940;-80
2023/08/21 03:10:23;;;;;;;4.00;2.80;;;22.00;99.90;;;;;;4920526;29;20538;-79
2023/08/21 03:12:49;;;;;;;4.53;2.53;;;22.00;99.90;;;;;;4936020;29;20180;-80
2023/08/21 03:15:15;;;;;;;4.03;2.80;;;22.10;99.90;;;;;;4937425;29;20588;-78
2023/08/21 03:17:41;;;;;;;4.40;2.77;;;22.10;99.90;;;;;;4937664;29;20213;-79
2023/08/21 03:20:07;;;;;;;5.10;3.20;;;22.10;99.90;;;;;;4935123;29;20966;-79
2023/08/21 03:22:34;;;;;;;5.70;3.07;;;22.20;99.90;;;;;;4933428;29;20279;-79
2023/08/21 03:25:00;;;;;;;4.23;2.67;;;22.20;99.90;;;;;;4935920;29;20740;-79
2023/08/21 03:27:26;;;;;;;3.23;2.30;;;22.20;99.90;;;;;;4936790;29;21214;-79
2023/08/21 03:29:52;;;;;;;4.80;2.70;;;22.20;99.90;;;;;;4939613;29;20600;-78
2023/08/21 03:32:18;;;;;;;2.53;2.13;;;22.20;99.90;;;;;;4936896;29;20736;-79
2023/08/21 03:34:44;;;;;;;4.23;2.53;;;22.20;99.90;;;;;;4928515;29;20196;-79
2023/08/21 03:37:10;;;;;;;4.50;2.70;;;22.20;99.90;;;;;;4935542;29;20659;-79
2023/08/21 03:39:36;;;;;;;6.83;2.60;;;22.20;99.90;;;;;;4934993;29;20597;-78
2023/08/21 03:42:02;;;;;;;6.87;2.77;;;22.10;99.90;;;;;;4929831;29;20637;-78
2023/08/21 03:44:28;;;;;;;3.50;2.17;;;22.10;99.90;;;;;;4920319;29;20645;-77
2023/08/21 03:46:54;;;;;;;6.90;2.80;;;22.10;99.90;;;;;;4922758;29;20623;-78
2023/08/21 03:49:19;;;;;;;3.20;1.93;;;22.10;99.90;;;;;;4932368;29;20699;-77
2023/08/21 03:51:45;;;;;;;4.63;2.53;;;22.10;99.90;;;;;;4935153;29;20647;-77
2023/08/21 03:54:11;;;;;;;3.93;2.47;;;22.10;99.90;;;;;;4933637;29;21154;-77
2023/08/21 03:56:37;;;;;;;6.10;2.70;;;22.10;99.90;;;;;;4927548;29;20212;-78
2023/08/21 03:59:02;;;;;;;3.63;2.73;;;22.10;99.90;;;;;;4934814;29;20237;-77
2023/08/21 04:01:28;;;;;;;4.47;3.00;;;22.10;99.90;;;;;;4935212;29;20671;-77
2023/08/21 04:03:54;;;;;;;3.97;3.47;;;22.10;99.90;;;;;;4933360;29;20555;-77
2023/08/21 04:06:20;;;;;;;5.67;2.97;;;22.00;99.90;;;;;;4928363;29;20261;-77
2023/08/21 04:08:47;;;;;;;7.60;3.77;;;22.10;99.90;;;;;;4923436;29;20186;-77
2023/08/21 04:11:13;;;;;;;5.23;3.73;;;22.10;99.90;;;;;;4933466;29;20596;-77
2023/08/21 04:13:38;;;;;;;5.37;3.23;;;22.10;99.90;;;;;;4933359;29;20666;-77
2023/08/21 04:16:04;;;;;;;4.43;3.50;;;22.10;99.90;;;;;;4933296;29;20182;-77
2023/08/21 04:18:30;;;;;;;3.93;3.53;;;22.10;99.90;;;;;;4933325;29;20280;-77
2023/08/21 04:20:55;;;;;;;4.87;3.20;;;22.10;99.90;;;;;;4932713;29;20264;-77
2023/08/21 04:23:21;;;;;;;3.17;2.73;;;22.10;99.90;;;;;;4934432;29;20196;-77
2023/08/21 04:25:47;;;;;;;4.77;3.20;;;22.10;99.90;;;;;;4934355;29;20232;-76
2023/08/21 04:28:12;;;;;;;6.40;3.60;;;22.10;99.90;;;;;;4933095;29;20197;-77
2023/08/21 04:30:42;;;;;;;8.47;3.20;;;22.00;99.90;;;;;;4933250;29;20249;-77
2023/08/21 04:33:08;;;;;;;7.60;4.00;;;22.00;99.90;;;;;;4917168;29;20672;-77
2023/08/21 04:35:38;;;;;;;6.40;4.03;;;22.00;99.90;;;;;;4933204;29;21237;-77
2023/08/21 04:38:05;;;;;;;4.87;4.03;;;22.00;99.90;;;;;;4932805;29;20693;-77
2023/08/21 04:40:31;;;;;;;6.07;3.80;;;22.00;99.90;;;;;;4934134;29;20599;-77
2023/08/21 04:42:57;;;;;;;4.50;4.10;;;21.90;99.90;;;;;;4932713;29;21009;-77
2023/08/21 04:45:23;;;;;;;6.40;3.83;;;21.90;99.90;;;;;;4926201;29;20637;-77
2023/08/21 04:47:49;;;;;;;2.90;2.60;;;21.90;99.90;;;;;;4914574;29;20621;-77
2023/08/21 04:50:15;;;;;;;7.77;4.20;;;21.90;99.90;;;;;;4932891;29;20176;-77
2023/08/21 04:52:41;;;;;;;5.50;3.80;;;21.90;99.90;;;;;;4932306;29;20177;-77
2023/08/21 04:55:08;;;;;;;6.83;4.10;;;21.90;99.90;;;;;;4916807;29;20581;-78
2023/08/21 04:57:35;;;;;;;4.40;3.50;;;21.90;99.90;;;;;;4932959;29;20712;-77
2023/08/21 05:00:05;;;;;;;5.03;3.73;;;21.90;99.90;;;;;;4932846;29;20581;-78
2023/08/21 05:02:35;;;;;;;4.20;3.80;;;21.90;99.90;;;;;;4933293;29;20585;-78
2023/08/21 05:05:01;;;;;;;6.50;3.67;;;21.90;99.90;;;;;;4929915;29;20633;-78
2023/08/21 05:07:28;;;;;;;7.27;4.33;;;21.90;99.90;;;;;;4882311;29;21065;-78
2023/08/21 05:09:53;;;;;;;4.33;3.43;;;21.90;99.90;;;;;;4930608;29;20628;-77
2023/08/21 05:12:20;;;;;;;5.90;3.80;;;21.90;99.90;;;;;;4932745;29;20605;-78
2023/08/21 05:14:46;;;;;;;5.27;4.67;;;22.00;99.90;;;;;;4916281;29;20593;-77
2023/08/21 05:17:12;;;;;;;5.93;3.87;;;22.00;99.90;;;;;;4932216;29;20205;-77
2023/08/21 05:19:38;;;;;;;6.13;4.37;;;22.00;99.90;;;;;;4913408;29;21080;-77
2023/08/21 05:22:04;;;;;;;6.10;3.70;;;22.00;99.90;;;;;;4915735;29;20196;-78
2023/08/21 05:24:31;;;;;;;4.13;3.10;;;22.10;99.90;;;;;;4932253;29;20192;-77
2023/08/21 05:27:01;;;;;;;6.13;3.23;;;22.10;99.90;;;;;;4931283;29;21269;-77
2023/08/21 05:29:27;;;;;;;6.53;3.57;;;22.20;99.90;;;;;;4932383;29;20732;-78
2023/08/21 05:31:53;;;;;;;4.20;3.60;;;22.20;99.90;;;;;;4931295;29;20272;-77
2023/08/21 05:34:19;;;;;;;5.57;3.93;;;22.30;99.90;;;;;;4903277;29;21180;-77
2023/08/21 05:36:45;;;;;;;4.00;3.60;;;22.30;99.90;;;;;;4921113;29;20213;-77
2023/08/21 05:39:10;;;;;;;6.00;4.37;;;22.30;99.90;;;;;;4917943;29;20187;-77
2023/08/21 05:41:37;;;;;;;7.17;4.07;;;22.40;99.90;;;;;;4932036;29;20607;-77
2023/08/21 05:44:03;;;;;;;7.23;3.43;;;22.40;99.90;;;;;;4916155;29;20680;-77
2023/08/21 05:46:28;;;;;;;4.70;3.50;;;22.50;99.90;;;;;;4932118;29;20637;-77
2023/08/21 05:48:54;;;;;;;5.73;3.90;;;22.60;99.90;;;;;;4932330;29;20588;-77
2023/08/21 05:51:21;;;;;;;4.20;3.80;;;22.60;99.90;;;;;;4932394;29;20243;-77
2023/08/21 05:53:46;;;;;;;4.07;3.33;;;22.70;99.90;;;;;;4932104;29;21154;-78
2023/08/21 05:56:12;;;;;;;3.40;3.10;;;22.80;99.90;;;;;;4932342;29;20322;-78
2023/08/21 05:58:38;;;;;;;7.70;3.53;;;22.90;99.90;;;;;;4932353;29;20208;-78
2023/08/21 06:01:03;;;;;;;6.67;3.73;;;23.00;99.90;;;;;;4932124;29;20257;-78
2023/08/21 06:03:31;;;;;;;6.77;4.13;;;23.10;99.90;;;;;;4931781;29;20276;-78
2023/08/21 06:06:06;;;;;;;7.60;3.27;;;23.20;99.90;;;;;;4933684;29;21205;-78
2023/08/21 06:08:32;;;;;;;6.30;3.30;;;23.40;99.90;;;;;;4936294;29;20596;-78
2023/08/21 06:10:58;;;;;;;4.90;3.00;;;23.60;99.90;;;;;;4935636;29;20605;-78
2023/08/21 06:13:24;;;;;;;3.50;2.83;;;23.70;99.90;;;;;;4935841;29;20317;-78
2023/08/21 06:15:53;;;;;;;5.07;3.13;;;23.90;99.90;;;;;;4936761;29;20189;-78
2023/08/21 06:18:21;;;;;;;4.37;2.27;;;24.10;99.90;;;;;;4936029;29;20605;-78
2023/08/21 06:20:53;;;;;;;5.07;3.33;;;24.20;99.90;;;;;;4935590;29;20592;-78
2023/08/21 06:23:20;;;;;;;5.07;3.40;;;24.40;99.90;;;;;;4944157;29;20581;-77
2023/08/21 06:25:48;;;;;;;4.37;2.47;;;24.50;99.90;;;;;;4935320;29;20640;-77
2023/08/21 06:28:13;;;;;;;7.00;3.50;;;24.70;99.90;;;;;;4935323;29;20624;-77
2023/08/21 06:30:39;;;;;;;5.63;3.13;;;24.70;99.90;;;;;;4935622;29;20581;-77
2023/08/21 06:33:05;;;;;;;3.07;2.67;;;25.00;99.90;;;;;;4935466;29;20213;-77
2023/08/21 06:35:31;;;;;;;3.53;3.17;;;25.50;99.90;;;;;;4935960;29;20189;-78
2023/08/21 06:37:56;;;;;;;4.93;2.50;;;26.20;99.90;;;;;;4919466;29;20221;-78
2023/08/21 06:40:22;;;;;;;5.20;2.30;;;27.10;99.90;;;;;;4935426;29;20185;-78
2023/08/21 06:42:50;;;;;;;4.03;2.37;;;28.00;99.90;;;;;;4935134;29;20212;-78
2023/08/21 06:45:19;;;;;;;3.63;2.37;;;28.90;99.90;;;;;;4935228;29;20628;-78
2023/08/21 06:47:45;;;;;;;3.60;2.43;;;29.80;99.90;;;;;;4935148;29;20672;-79
2023/08/21 06:50:11;;;;;;;5.37;2.10;;;30.70;99.90;;;;;;4937711;29;20631;-78
2023/08/21 06:52:36;;;;;;;5.60;2.10;;;31.60;99.90;;;;;;4935445;29;20242;-78
2023/08/21 06:55:02;;;;;;;5.10;2.57;;;32.40;99.90;;;;;;4936081;29;20710;-78
2023/08/21 06:57:28;;;;;;;5.43;2.93;;;33.20;99.90;;;;;;4936250;29;20208;-78
2023/08/21 06:59:54;;;;;;;7.23;2.40;;;34.00;99.90;;;;;;4919057;29;20220;-78
2023/08/21 07:02:19;;;;;;;8.10;2.47;;;34.70;99.90;;;;;;4934924;29;20186;-78
2023/08/21 07:04:45;;;;;;;4.27;2.33;;;35.30;99.90;;;;;;4936158;29;20204;-79
2023/08/21 07:07:11;;;;;;;5.43;2.40;;;35.90;99.90;;;;;;4934968;29;20724;-79
2023/08/21 07:09:37;;;;;;;4.07;1.97;;;36.50;99.90;;;;;;4934522;29;20196;-78
2023/08/21 07:12:02;;;;;;;5.50;3.00;;;37.00;99.90;;;;;;4935837;29;20658;-78
2023/08/21 07:14:28;;;;;;;4.73;2.37;;;37.50;99.90;;;;;;4934571;29;20189;-79
2023/08/21 07:16:54;;;;;;;6.10;2.73;;;38.00;99.90;;;;;;4934205;29;20720;-79
2023/08/21 07:19:20;;;;;;;5.20;2.33;;;38.50;99.90;;;;;;4935863;29;20185;-79
2023/08/21 07:21:45;;;;;;;5.80;2.63;;;38.90;99.90;;;;;;4936199;29;20177;-79
2023/08/21 07:24:11;;;;;;;4.70;2.70;;;39.40;99.20;;;;;;4934824;29;20213;-79
2023/08/21 07:26:38;;;;;;;3.83;2.17;;;39.80;97.60;;;;;;4937708;29;20686;-79
2023/08/21 07:29:04;;;;;;;4.57;2.00;;;40.10;95.80;;;;;;4936001;29;20172;-79
2023/08/21 07:31:30;;;;;;;4.50;2.70;;;40.40;94.30;;;;;;4934638;29;21092;-79
2023/08/21 07:33:56;;;;;;;3.63;2.13;;;40.80;92.80;;;;;;4934076;29;20993;-78
2023/08/21 07:36:22;;;;;;;2.53;2.23;;;41.10;91.60;;;;;;4935504;29;20635;-79
2023/08/21 07:38:50;;;;;;;3.53;2.03;;;41.40;89.90;;;;;;4934673;29;20535;-79
2023/08/21 07:41:16;;;;;;;3.00;2.40;;;41.60;86.90;;;;;;4934198;29;20595;-78
2023/08/21 07:43:42;;;;;;;5.20;1.70;;;41.90;84.60;;;;;;4935330;29;20596;-79
2023/08/21 07:46:15;;;;;;;4.63;2.03;;;42.20;82.30;;;;;;4934155;29;20235;-79
2023/08/21 07:48:42;;;;;;;3.17;2.00;;;42.50;80.10;;;;;;4935683;29;21047;-79
2023/08/21 07:51:08;;;;;;;3.73;2.30;;;42.80;77.80;;;;;;4935297;29;20577;-79
2023/08/21 07:53:34;;;;;;;4.63;2.30;;;43.00;75.90;;;;;;4933995;29;20600;-79
2023/08/21 07:56:01;;;;;;;3.80;2.07;;;43.30;73.80;;;;;;4933849;29;20589;-79
2023/08/21 07:58:27;;;;;;;3.40;2.40;;;43.50;71.40;;;;;;4935387;29;20680;-79
2023/08/21 08:00:52;;;;;;;3.60;2.90;;;43.70;69.00;;;;;;4934271;29;21032;-79
2023/08/21 08:03:18;;;;;;;3.07;2.50;;;43.90;67.40;;;;;;4935005;29;20191;-79
2023/08/21 08:05:44;;;;;;;6.63;2.90;;;44.00;65.70;;;;;;4932944;29;20291;-79
2023/08/21 08:08:10;;;;;;;3.63;2.07;;;44.10;64.00;;;;;;4933653;29;20205;-79
2023/08/21 08:10:40;;;;;;;4.70;2.10;;;44.30;62.60;;;;;;4933949;29;20236;-79
2023/08/21 08:13:07;;;;;;;4.60;2.73;;;44.30;60.20;;;;;;4933709;29;20203;-79
2023/08/21 08:15:36;;;;;;;4.10;2.13;;;44.40;59.60;;;;;;4934572;29;20588;-80
2023/08/21 08:18:03;;;;;;;4.17;2.50;;;44.50;58.80;;;;;;4934449;29;20651;-79
2023/08/21 08:20:29;;;;;;;4.37;2.53;;;44.50;58.00;;;;;;4933864;29;21126;-79
2023/08/21 08:22:56;;;;;;;3.10;2.27;;;44.50;56.80;;;;;;4944797;29;20624;-80
2023/08/21 08:25:22;;;;;;;3.33;2.50;;;44.50;56.30;;;;;;4947298;29;20676;-80
2023/08/21 08:27:48;;;;;;;3.80;2.13;;;44.50;55.50;;;;;;4938341;29;20641;-79
2023/08/21 08:30:14;;;;;;;3.70;3.10;;;44.40;55.20;;;;;;4934678;29;20621;-79
2023/08/21 08:32:46;;;;;;;4.40;2.50;;;44.50;54.80;;;;;;4934755;29;20951;-79
2023/08/21 08:35:13;;;;;;;6.80;2.80;;;44.50;54.20;;;;;;4933404;29;21285;-79
2023/08/21 08:37:42;;;;;;;4.40;2.13;;;44.50;53.80;;;;;;4933642;29;20636;-79
2023/08/21 08:40:09;;;;;;;4.37;2.43;;;44.50;54.20;;;;;;4934548;29;20652;-79
2023/08/21 08:42:36;;;;;;;3.50;1.93;;;44.60;53.20;;;;;;4933348;29;20686;-78
2023/08/21 08:45:03;;;;;;;3.30;1.97;;;44.60;53.20;;;;;;4934187;29;20593;-77
2023/08/21 08:47:34;;;;;;;4.77;2.13;;;44.70;52.80;;;;;;4933244;29;20625;-79
2023/08/21 08:50:07;;;;;;;4.00;2.53;;;44.90;52.40;;;;;;4933079;29;20610;-79
2023/08/21 08:52:36;;;;;;;3.20;2.40;;;45.00;51.60;;;;;;4932888;29;20640;-79
2023/08/21 08:55:03;;;;;;;4.03;3.00;;;45.10;51.70;;;;;;4933889;29;20718;-79
2023/08/21 08:57:29;;;;;;;4.90;2.30;;;45.20;51.40;;;;;;4933940;29;21206;-75
2023/08/21 08:59:55;;;;;;;3.27;2.07;;;45.30;51.10;;;;;;4933280;29;20648;-76
2023/08/21 09:02:21;;;;;;;3.97;3.03;;;45.40;51.00;;;;;;4934118;29;21154;-75
2023/08/21 09:04:47;;;;;;;6.40;2.90;;;45.60;50.60;;;;;;4934201;29;20602;-73
2023/08/21 09:07:16;;;;;;;3.33;3.03;;;45.60;49.90;;;;;;4932766;29;20616;-73
2023/08/21 09:09:46;;;;;;;4.10;3.30;;;45.60;49.30;;;;;;4933058;29;20596;-75
2023/08/21 09:12:14;;;;;;;4.07;3.13;;;45.60;48.80;;;;;;4934630;29;20603;-73
2023/08/21 09:14:40;;;;;;;3.60;2.53;;;45.60;48.90;;;;;;4934155;29;20955;-75
2023/08/21 09:17:07;;;;;;;3.97;2.53;;;45.70;48.90;;;;;;4933037;29;20817;-75
2023/08/21 09:19:33;;;;;;;4.90;2.87;;;45.70;48.20;;;;;;4932476;29;20593;-74
2023/08/21 09:22:04;;;;;;;4.00;3.10;;;45.70;48.10;;;;;;4933780;29;20991;-74
2023/08/21 09:24:29;;;;;;;3.20;2.60;;;45.70;47.50;;;;;;4932347;29;20603;-75
2023/08/21 09:26:56;;;;;;;4.00;3.20;;;45.60;47.30;;;;;;4929228;29;20617;-75
2023/08/21 09:29:23;;;;;;;5.00;2.67;;;45.50;47.30;;;;;;4933717;29;20193;-75
2023/08/21 09:31:48;;;;;;;5.00;3.33;;;45.50;46.90;;;;;;4932365;29;20593;-75
2023/08/21 09:34:14;;;;;;;7.60;3.50;;;45.40;46.70;;;;;;4932179;29;20581;-75
2023/08/21 09:36:40;;;;;;;4.20;3.17;;;45.40;46.70;;;;;;4932398;29;20272;-75
2023/08/21 09:39:06;;;;;;;4.10;3.10;;;45.40;46.70;;;;;;4933772;29;20192;-75
2023/08/21 09:41:32;;;;;;;3.73;3.07;;;45.40;46.80;;;;;;4937636;29;20209;-74
2023/08/21 09:44:01;;;;;;;3.73;2.47;;;45.40;46.50;;;;;;4936347;29;20589;-74
2023/08/21 09:46:28;;;;;;;7.70;3.30;;;45.40;46.60;;;;;;4937417;29;20929;-75
2023/08/21 09:48:54;;;;;;;5.40;2.33;;;45.40;46.30;;;;;;4936418;29;20659;-75
2023/08/21 09:51:20;;;;;;;2.90;2.13;;;45.50;46.80;;;;;;4938406;29;20599;-75
2023/08/21 09:53:49;;;;;;;5.33;2.90;;;45.70;46.70;;;;;;4937062;29;20667;-75
2023/08/21 09:56:16;;;;;;;5.40;3.27;;;45.80;46.20;;;;;;4934609;29;20739;-75
2023/08/21 09:58:43;;;;;;;5.03;3.50;;;45.90;45.80;;;;;;4931685;29;20591;-75
2023/08/21 10:01:14;;;;;;;5.47;4.20;;;45.80;45.10;;;;;;4935679;29;20599;-75
2023/08/21 10:03:41;;;;;;;6.77;3.80;;;45.70;45.00;;;;;;4937097;29;20588;-75
2023/08/21 10:06:09;;;;;;;5.07;3.63;;;45.70;44.80;;;;;;4937172;29;20595;-75
2023/08/21 10:08:40;;;;;;;4.73;3.13;;;45.60;44.60;;;;;;4936091;29;20585;-75
2023/08/21 10:11:08;;;;;;;6.57;2.93;;;45.50;44.70;;;;;;4936884;29;20591;-75
2023/08/21 10:13:36;;;;;;;6.13;3.30;;;45.40;45.00;;;;;;4935811;29;20592;-75
2023/08/21 10:16:03;;;;;;;6.00;3.70;;;45.50;45.00;;;;;;4936792;29;20647;-75
2023/08/21 10:18:35;;;;;;;5.70;3.63;;;45.50;44.90;;;;;;4935719;29;20593;-75
2023/08/21 10:21:34;;;;;;;5.33;4.00;;;45.50;44.60;;;;;;4935561;29;20589;-75
2023/08/21 10:24:01;;;;;;;5.50;3.57;;;45.60;44.50;;;;;;4936530;29;20589;-75
2023/08/21 10:26:27;;;;;;;7.43;3.40;;;45.50;44.40;;;;;;4928872;29;20620;-75
2023/08/21 10:28:59;;;;;;;5.93;3.43;;;45.50;44.20;;;;;;4937504;29;20591;-75
2023/08/21 10:31:29;;;;;;;5.70;3.70;;;45.40;44.00;;;;;;4936618;29;20207;-75
2023/08/21 10:33:55;;;;;;;5.77;3.67;;;45.40;44.10;;;;;;4935192;29;20595;-75
2023/08/21 10:36:37;;;;;;;5.10;3.83;;;45.30;44.20;;;;;;4936530;29;20652;-75
2023/08/21 10:39:04;;;;;;;9.27;4.20;;;45.30;43.60;;;;;;4935391;29;20181;-75
2023/08/21 10:41:30;;;;;;;6.20;4.70;;;45.10;44.20;;;;;;4935327;29;21165;-75
2023/08/21 10:43:56;;;;;;;5.80;5.20;;;44.90;43.90;;;;;;4936357;29;20600;-75
2023/08/21 10:46:22;;;;;;;6.47;3.50;;;44.50;43.80;;;;;;4936487;29;21118;-75
2023/08/21 10:48:47;;;;;;;5.40;4.27;;;44.30;44.10;;;;;;4935396;29;20643;-75
2023/08/21 10:51:16;;;;;;;5.73;4.43;;;44.10;44.80;;;;;;4934275;29;20218;-75
2023/08/21 10:53:42;;;;;;;6.50;5.30;;;43.90;44.80;;;;;;4930601;29;20581;-75
2023/08/21 10:56:08;;;;;;;6.20;4.33;;;43.70;44.70;;;;;;4934923;29;20640;-75
2023/08/21 10:58:46;;;;;;;4.50;4.00;;;43.50;44.70;;;;;;4936461;29;20592;-75
2023/08/21 11:01:15;;;;;;;4.33;3.53;;;43.30;44.80;;;;;;4934887;29;20181;-75
2023/08/21 11:03:44;;;;;;;5.87;4.70;;;43.10;45.00;;;;;;4936796;29;20672;-75
2023/08/21 11:06:10;;;;;;;5.40;3.80;;;43.00;44.90;;;;;;4935002;29;20600;-75
2023/08/21 11:08:37;;;;;;;4.87;4.37;;;42.90;45.20;;;;;;4936209;29;20581;-75
2023/08/21 11:11:04;;;;;;;4.77;4.10;;;42.70;45.30;;;;;;4936117;29;20181;-75
2023/08/21 11:13:31;;;;;;;7.67;5.80;;;42.60;45.40;;;;;;4934449;29;20585;-75
2023/08/21 11:16:05;;;;;;;5.70;5.10;;;42.50;45.30;;;;;;4936250;29;20633;-79
2023/08/21 11:18:31;;;;;;;6.23;4.87;;;42.50;45.50;;;;;;4934978;29;20647;-78
2023/08/21 11:21:05;;;;;;;6.20;5.60;;;42.40;45.90;;;;;;4934500;29;20595;-78
2023/08/21 11:23:40;;;;;;;6.50;5.17;;;42.20;45.10;;;;;;4929400;29;21155;-79
2023/08/21 11:26:10;;;;;;;5.07;4.07;;;42.00;45.30;;;;;;4924631;29;20590;-79
2023/08/21 11:28:36;;;;;;;6.80;4.40;;;41.80;45.20;;;;;;4936313;29;20585;-78
2023/08/21 11:31:02;;;;;;;5.63;4.53;;;41.60;45.50;;;;;;4934533;29;20719;-79
2023/08/21 11:33:28;;;;;;;6.10;3.27;;;41.40;45.60;;;;;;4934409;29;21208;-78
2023/08/21 11:35:57;;;;;;;7.13;4.50;;;41.40;46.00;;;;;;4935957;29;20207;-78
2023/08/21 11:38:25;;;;;;;8.73;3.87;;;41.20;45.80;;;;;;4943002;29;20601;-78
2023/08/21 11:41:01;;;;;;;5.00;4.30;;;41.00;45.90;;;;;;4952561;29;21202;-78
2023/08/21 11:43:43;;;;;;;3.90;3.50;;;40.90;46.00;;;;;;4924448;29;21865;-76
2023/08/21 11:46:10;;;;;;;4.57;4.07;;;40.70;46.10;;;;;;4936952;29;20595;-77
2023/08/21 11:48:40;;;;;;;8.53;4.00;;;40.50;45.90;;;;;;4934527;29;20585;-77
2023/08/21 11:51:09;;;;;;;5.90;4.00;;;40.10;46.00;;;;;;4918614;29;20600;-76
2023/08/21 11:53:36;;;;;;;5.87;3.03;;;39.90;46.20;;;;;;4933993;29;20932;-76
2023/08/21 11:56:08;;;;;;;7.20;3.80;;;39.60;46.50;;;;;;4934095;29;20687;-76
2023/08/21 11:58:38;;;;;;;4.30;3.03;;;39.50;47.00;;;;;;4935731;29;20589;-76
2023/08/21 12:01:04;;;;;;;6.10;3.40;;;39.40;47.30;;;;;;4935404;29;20591;-77
2023/08/21 12:03:35;;;;;;;6.27;3.03;;;39.40;47.40;;;;;;4936376;29;20585;-76
2023/08/21 12:06:08;;;;;;;3.77;3.43;;;39.20;47.10;;;;;;4934205;29;20596;-76
2023/08/21 12:08:34;;;;;;;4.27;2.87;;;39.00;47.00;;;;;;4935861;29;20632;-76
2023/08/21 12:11:00;;;;;;;4.63;3.00;;;38.80;47.10;;;;;;4935676;29;20589;-76
2023/08/21 12:13:26;;;;;;;5.90;3.80;;;38.60;47.50;;;;;;4934276;29;20589;-76
2023/08/21 12:15:52;;;;;;;4.03;2.60;;;38.40;47.40;;;;;;4935925;29;21253;-77
2023/08/21 12:18:18;;;;;;;4.23;2.80;;;38.20;47.30;;;;;;4934428;29;20726;-77
2023/08/21 12:20:43;;;;;;;3.93;3.40;;;38.00;47.50;;;;;;4936572;29;20180;-77
2023/08/21 12:23:10;;;;;;;3.03;2.10;;;37.70;47.50;;;;;;4936600;29;20525;-76
2023/08/21 12:25:35;;;;;;;7.23;2.73;;;37.50;47.90;;;;;;4936101;29;20591;-77
2023/08/21 12:28:01;;;;;;;4.60;3.40;;;37.30;48.50;;;;;;4934803;29;20193;-76
2023/08/21 12:30:27;;;;;;;5.17;3.13;;;37.20;48.60;;;;;;4933643;29;20236;-76
2023/08/21 12:32:52;;;;;;;5.93;2.80;;;37.10;48.80;;;;;;4933609;29;20788;-77
2023/08/21 12:35:18;;;;;;;3.63;2.33;;;37.00;48.80;;;;;;4934911;29;20224;-78
2023/08/21 12:37:43;;;;;;;5.03;2.40;;;36.90;49.10;;;;;;4934585;29;20213;-77
2023/08/21 12:40:11;;;;;;;2.80;1.90;;;36.80;49.20;;;;;;4934970;29;20220;-77
2023/08/21 12:42:36;;;;;;;3.80;2.33;;;36.70;49.30;;;;;;4934723;29;20608;-77
2023/08/21 12:45:03;;;;;;;3.13;1.90;;;36.60;49.20;;;;;;4934155;29;20185;-78
2023/08/21 12:47:28;;;;;;;4.20;2.23;;;36.50;49.20;;;;;;4934792;29;20201;-77